^^
Saratoga-Weather Station Historical Data
Daily Summary for February 28, 2020 Units:  English    Metric   Both
Daily Weekly Monthly Yearly Custom
  High: Low: Average:
Temperature: 47.5 °F 31.6 °F 38.1 °F
Dew Point: 36.1 °F 29.5 °F 32.7 °F
Humidity: 94% 58% 82%
Wind Speed: 13mph 0mph 3.5mph
Wind Gust: 23mph - -
Wind- - WSW
Pressure: 30.1 in 29.9 in -
Precipitation: 0.01 in    
Historical Graphs
 
 
Tabular Data for February 28, 2020
Time Temperature Dew Point Pressure Wind Wind Speed Wind Gust Humidity Rainfall Rate (Hourly) solar
00:01 36.7 °F 33.4 °F 29.9 in WNW 11 mph 23 mph 88% 0 in 0 W/m2
00:06 36.7 °F 33.4 °F 29.9 in West 8.1 mph 14 mph 88% 0 in 0 W/m2
00:11 36.7 °F 33.4 °F 29.9 in WSW 8.1 mph 17 mph 88% 0 in 0 W/m2
00:16 36.7 °F 33.8 °F 29.9 in WNW 11 mph 17 mph 89% 0 in 0 W/m2
00:21 36.5 °F 33.6 °F 29.9 in WSW 6.9 mph 11 mph 89% 0 in 0 W/m2
00:26 36.3 °F 33.4 °F 29.9 in WNW 6.9 mph 17 mph 89% 0 in 0 W/m2
00:32 36.3 °F 33.4 °F 29.9 in SW 10.1 mph 10 mph 89% 0 in 0 W/m2
00:37 36.3 °F 33.4 °F 29.9 in WSW 12.1 mph 14 mph 89% 0 in 0 W/m2
00:42 36.1 °F 33.3 °F 29.9 in WNW 10.1 mph 11 mph 89% 0 in 0 W/m2
00:47 36.1 °F 33.3 °F 29.9 in West 8.1 mph 14 mph 89% 0 in 0 W/m2
00:52 36.1 °F 33.3 °F 29.9 in WNW 4 mph 10 mph 89% 0 in 0 W/m2
00:57 36.1 °F 33.4 °F 29.9 in West 8.1 mph 14 mph 90% 0 in 0 W/m2
01:02 36.1 °F 33.3 °F 30 in WSW 8.1 mph 10 mph 89% 0 in 0 W/m2
01:07 36.1 °F 33.4 °F 30 in West 8.1 mph 14 mph 90% 0 in 0 W/m2
01:12 36.1 °F 33.4 °F 30 in SW 10.1 mph 10 mph 90% 0 in 0 W/m2
01:17 36 °F 33.3 °F 30 in WSW 10.1 mph 14 mph 90% 0 in 0 W/m2
01:22 36 °F 33.3 °F 30 in West 6.9 mph 9 mph 90% 0 in 0 W/m2
01:27 36 °F 33.1 °F 30 in WSW 8.1 mph 13 mph 89% 0 in 0 W/m2
01:32 36 °F 33.3 °F 30 in West 4 mph 8 mph 90% 0 in 0 W/m2
01:37 35.8 °F 32.9 °F 30 in West 2.9 mph 12 mph 89% 0 in 0 W/m2
01:42 35.8 °F 33.1 °F 30 in West 4 mph 8 mph 90% 0 in 0 W/m2
01:47 35.8 °F 33.1 °F 30 in WNW 6 mph 10 mph 90% 0 in 0 W/m2
01:52 35.8 °F 33.1 °F 30 in WNW 4 mph 7 mph 90% 0 in 0 W/m2
01:57 35.8 °F 32.9 °F 30 in SW 2 mph 10 mph 89% 0 in 0 W/m2
02:02 35.8 °F 32.9 °F 30 in West 6 mph 8 mph 89% 0 in 0 W/m2
02:07 35.8 °F 32.9 °F 30 in West 4 mph 9 mph 89% 0 in 0 W/m2
02:12 35.8 °F 32.9 °F 30 in West 4 mph 9 mph 89% 0 in 0 W/m2
02:17 35.8 °F 32.9 °F 30 in WNW 2.9 mph 11 mph 89% 0 in 0 W/m2
02:22 35.8 °F 32.9 °F 30 in NW 6 mph 10 mph 89% 0 in 0 W/m2
02:27 35.8 °F 32.9 °F 30 in WNW 4 mph 6 mph 89% 0 in 0 W/m2
02:32 35.6 °F 32.4 °F 30 in West 4 mph 8 mph 88% 0 in 0 W/m2
02:37 35.4 °F 32.2 °F 30 in West 6.9 mph 7 mph 88% 0 in 0 W/m2
02:42 35.2 °F 32.4 °F 30 in West 2.9 mph 7 mph 89% 0 in 0 W/m2
02:47 35.2 °F 32.4 °F 30 in West 4 mph 7 mph 89% 0 in 0 W/m2
02:52 35.1 °F 32.2 °F 30 in West 2.9 mph 11 mph 89% 0 in 0 W/m2
02:57 35.1 °F 32.2 °F 30 in WSW 4 mph 7 mph 89% 0 in 0 W/m2
03:02 35.1 °F 32.2 °F 30 in West 2 mph 7 mph 89% 0 in 0 W/m2
03:07 35.1 °F 32.2 °F 30 in West 2.9 mph 12 mph 89% 0 in 0 W/m2
03:12 35.1 °F 32.2 °F 30 in West 6.9 mph 10 mph 89% 0 in 0 W/m2
03:17 35.1 °F 32.2 °F 30 in WNW 2.9 mph 9 mph 89% 0 in 0 W/m2
03:22 35.1 °F 32.2 °F 30 in WNW 4 mph 9 mph 89% 0 in 0 W/m2
03:27 35.1 °F 31.8 °F 30 in West 2 mph 7 mph 88% 0 in 0 W/m2
03:32 34.9 °F 31.6 °F 30 in South 0.9 mph 3 mph 88% 0 in 0 W/m2
03:37 34.7 °F 31.8 °F 30 in WSW 4.9 mph 8 mph 89% 0 in 0 W/m2
03:42 34.7 °F 31.8 °F 30 in WNW 4 mph 10 mph 89% 0 in 0 W/m2
03:47 34.5 °F 31.6 °F 30 in WSW 2 mph 7 mph 89% 0 in 0 W/m2
03:52 34.5 °F 31.6 °F 30 in WSW 4 mph 10 mph 89% 0 in 0 W/m2
03:57 34.3 °F 31.5 °F 30 in West 2.9 mph 9 mph 89% 0 in 0 W/m2
04:02 34.3 °F 31.5 °F 30 in SW 2 mph 8 mph 89% 0 in 0 W/m2
04:07 34.3 °F 31.5 °F 30 in West 2.9 mph 9 mph 89% 0 in 0 W/m2
04:12 34.2 °F 31.3 °F 30 in West 2.9 mph 8 mph 89% 0 in 0 W/m2
04:17 34.2 °F 31.3 °F 30 in West 6 mph 11 mph 89% 0 in 0 W/m2
04:22 34.2 °F 31.3 °F 30 in West 2 mph 9 mph 89% 0 in 0 W/m2
04:27 34.2 °F 31.3 °F 30 in SW 4 mph 8 mph 89% 0 in 0 W/m2
04:32 34.2 °F 31.3 °F 30.1 in WNW 4 mph 4 mph 89% 0 in 0 W/m2
04:37 34.2 °F 31.3 °F 30.1 in West 4 mph 7 mph 89% 0 in 0 W/m2
04:42 34 °F 31.1 °F 30.1 in West 8.1 mph 9 mph 89% 0 in 0 W/m2
04:47 34 °F 31.1 °F 30.1 in WSW 6.9 mph 9 mph 89% 0 in 0 W/m2
04:52 34 °F 31.3 °F 30.1 in West 4 mph 5 mph 90% 0 in 0 W/m2
04:57 34 °F 31.1 °F 30.1 in West 2.9 mph 4 mph 89% 0 in 0 W/m2
05:02 33.8 °F 31.1 °F 30.1 in West 2.9 mph 7 mph 90% 0 in 0 W/m2
05:07 33.6 °F 30.9 °F 30.1 in WSW 4.9 mph 6 mph 90% 0 in 0 W/m2
05:12 33.6 °F 30.9 °F 30.1 in WNW 6 mph 6 mph 90% 0 in 0 W/m2
05:17 33.6 °F 30.9 °F 30.1 in West 2 mph 8 mph 90% 0 in 0 W/m2
05:22 33.4 °F 30.7 °F 30.1 in West 4 mph 6 mph 90% 0 in 0 W/m2
05:27 33.4 °F 30.7 °F 30.1 in West 2.9 mph 5 mph 90% 0 in 0 W/m2
05:32 33.4 °F 30.7 °F 30.1 in West 6 mph 9 mph 90% 0 in 0 W/m2
05:37 33.3 °F 30.6 °F 30.1 in West 13 mph 13 mph 90% 0 in 0 W/m2
05:42 33.3 °F 30.6 °F 30.1 in WNW 6.9 mph 10 mph 90% 0 in 0 W/m2
05:47 33.3 °F 30.6 °F 30.1 in West 2 mph 6 mph 90% 0 in 0 W/m2
05:52 33.3 °F 30.6 °F 30.1 in WSW 4 mph 8 mph 90% 0 in 0 W/m2
05:57 33.3 °F 30.6 °F 30.1 in West 6 mph 9 mph 90% 0 in 0 W/m2
06:02 33.3 °F 30.6 °F 30.1 in NNW 2 mph 9 mph 90% 0 in 0 W/m2
06:07 33.3 °F 30.6 °F 30.1 in West 6 mph 11 mph 90% 0 in 0 W/m2
06:12 33.4 °F 30.7 °F 30.1 in West 2.9 mph 7 mph 90% 0 in 0 W/m2
06:17 33.4 °F 30.7 °F 30.1 in WNW 4 mph 7 mph 90% 0 in 0 W/m2
06:22 33.4 °F 30.7 °F 30.1 in WNW 2.9 mph 7 mph 90% 0 in 0 W/m2
06:27 33.4 °F 30.7 °F 30.1 in NW 2.9 mph 4 mph 90% 0 in 0 W/m2
06:32 33.3 °F 30.6 °F 30.1 in NW 2.9 mph 5 mph 90% 0 in 0 W/m2
06:37 33.1 °F 30.4 °F 30.1 in WNW 2 mph 5 mph 90% 0 in 0 W/m2
06:42 32.9 °F 30.4 °F 30.1 in WNW 2.9 mph 3 mph 90% 0 in 0 W/m2
06:48 32.7 °F 30.2 °F 30.1 in WNW 2.9 mph 3 mph 90% 0 in 0 W/m2
06:53 32.5 °F 30.2 °F 30.1 in WNW 2 mph 3 mph 91% 0 in 0 W/m2
06:58 32.5 °F 30.2 °F 30.1 in WNW 2.9 mph 6 mph 91% 0 in 0 W/m2
07:03 32.7 °F 30.4 °F 30.1 in West 4 mph 6 mph 91% 0 in 0 W/m2
07:08 32.9 °F 30.6 °F 30.1 in West 2 mph 9 mph 91% 0 in 0 W/m2
07:13 33.1 °F 30.7 °F 30.1 in SW 2 mph 4 mph 91% 0 in 0 W/m2
07:18 33.1 °F 30.7 °F 30.1 in Calm   2 mph 91% 0 in 0 W/m2
07:23 33.1 °F 30.7 °F 30.1 in South 2 mph 2 mph 91% 0 in 5 W/m2
07:28 32.7 °F 30.4 °F 30.1 in SSW 0.9 mph 1 mph 91% 0 in 7 W/m2
07:33 32.5 °F 30 °F 30.1 in SSW 0.9 mph 2 mph 90% 0 in 12 W/m2
07:38 32.2 °F 29.8 °F 30.1 in Calm   1 mph 91% 0 in 14 W/m2
07:43 32 °F 29.7 °F 30.1 in Calm     91% 0 in 18 W/m2
07:48 31.8 °F 29.5 °F 30.1 in SSW 0.9 mph 2 mph 91% 0 in 21 W/m2
07:53 31.6 °F 29.7 °F 30.1 in SSW 0.9 mph 2 mph 92% 0 in 23 W/m2
07:58 31.6 °F 29.7 °F 30.1 in Calm     92% 0 in 30 W/m2
08:03 31.6 °F 29.7 °F 30.1 in South 2 mph 2 mph 92% 0 in 33 W/m2
08:08 31.6 °F 29.8 °F 30.1 in SSE 0.9 mph 3 mph 93% 0 in 39 W/m2
08:13 31.8 °F 30 °F 30.1 in SE 0.9 mph 2 mph 93% 0 in 46 W/m2
08:18 32.2 °F 30.4 °F 30.1 in SE 2 mph 2 mph 93% 0 in 44 W/m2
08:23 32.4 °F 30.6 °F 30.1 in ESE 0.9 mph 2 mph 93% 0 in 49 W/m2
08:28 32.5 °F 30.7 °F 30.1 in Calm   2 mph 93% 0 in 46 W/m2
08:33 32.7 °F 30.9 °F 30.1 in East 0.9 mph 1 mph 93% 0 in 54 W/m2
08:38 33.1 °F 31.5 °F 30.1 in West 2 mph 4 mph 94% 0 in 47 W/m2
08:43 33.3 °F 31.5 °F 30.1 in Calm   6 mph 93% 0 in 104 W/m2
08:48 33.6 °F 31.8 °F 30.1 in SSW 0.9 mph 1 mph 93% 0 in 144 W/m2
08:53 34 °F 32.2 °F 30.1 in ENE 4 mph 6 mph 93% 0 in 153 W/m2
08:58 34.3 °F 32.5 °F 30.1 in NE 0.9 mph 1 mph 93% 0 in 163 W/m2
09:03 34.7 °F 32.5 °F 30.1 in Calm   2 mph 92% 0 in 181 W/m2
09:08 35.2 °F 33.1 °F 30.1 in WSW 2.9 mph 4 mph 92% 0 in 185 W/m2
09:13 35.2 °F 32.5 °F 30.1 in NNW 0.9 mph 7 mph 90% 0 in 86 W/m2
09:18 35.4 °F 32.7 °F 30.1 in NE 4 mph 4 mph 90% 0 in 123 W/m2
09:23 35.8 °F 33.1 °F 30.1 in Calm   7 mph 90% 0 in 185 W/m2
09:28 36.1 °F 33.3 °F 30.1 in WSW 2.9 mph 3 mph 89% 0 in 74 W/m2
09:33 36.3 °F 33.4 °F 30.1 in NNW 2 mph 3 mph 89% 0 in 258 W/m2
09:38 36.9 °F 33.6 °F 30.1 in NE 0.9 mph 2 mph 88% 0 in 264 W/m2
09:43 37 °F 33.8 °F 30.1 in Calm   2 mph 88% 0 in 269 W/m2
09:48 37.6 °F 34 °F 30.1 in West 4 mph 4 mph 87% 0 in 283 W/m2
09:53 37.6 °F 34 °F 30.1 in WNW 0.9 mph 3 mph 87% 0 in 290 W/m2
09:58 37.9 °F 34.2 °F 30.1 in Calm   3 mph 86% 0 in 313 W/m2
10:03 38.5 °F 34.7 °F 30.1 in North 2 mph 2 mph 86% 0 in 313 W/m2
10:08 38.7 °F 34.2 °F 30.1 in West 2.9 mph 6 mph 84% 0 in 345 W/m2
10:13 38.7 °F 34.5 °F 30.1 in WNW 0.9 mph 2 mph 85% 0 in 357 W/m2
10:18 38.8 °F 34.3 °F 30.1 in Calm   4 mph 84% 0 in 345 W/m2
10:28 39.9 °F 34.9 °F 30.1 in SSW 0.9 mph 3 mph 82% 0 in 309 W/m2
10:33 40.1 °F 35.1 °F 30.1 in NNW 0.9 mph 4 mph 82% 0 in 316 W/m2
10:38 40.1 °F 34.7 °F 30.1 in NW 0.9 mph 5 mph 81% 0 in 271 W/m2
10:43 39.9 °F 34.5 °F 30.1 in WNW 6.9 mph 8 mph 81% 0 in 290 W/m2
10:49 39.9 °F 34.5 °F 30.1 in NNW 2 mph 4 mph 81% 0 in 302 W/m2
10:54 40.1 °F 34.7 °F 30.1 in WNW 2 mph 5 mph 81% 0 in 283 W/m2
10:59 40.3 °F 35.2 °F 30.1 in East 2.9 mph 3 mph 82% 0 in 309 W/m2
11:04 40.8 °F 35.1 °F 30.1 in East 6 mph 8 mph 80% 0 in 364 W/m2
11:09 41 °F 35.1 °F 30.1 in WNW 4 mph 9 mph 79% 0 in 352 W/m2
11:14 41.2 °F 35.4 °F 30.1 in NW 0.9 mph 3 mph 80% 0 in 383 W/m2
11:19 41.5 °F 35.8 °F 30.1 in South 2 mph 8 mph 80% 0 in 408 W/m2
11:24 42.1 °F 36 °F 30.1 in North 2 mph 2 mph 79% 0 in 362 W/m2
11:29 42.4 °F 36.1 °F 30.1 in West 2 mph 2 mph 78% 0 in 350 W/m2
11:34 43 °F 35.6 °F 30.1 in WNW 2 mph 6 mph 75% 0 in 269 W/m2
11:39 43 °F 35.6 °F 30.1 in East 4 mph 11 mph 75% 0 in 221 W/m2
11:44 43.2 °F 35.8 °F 30.1 in NNW 0.9 mph 3 mph 75% 0 in 264 W/m2
11:49 43.2 °F 34.7 °F 30.1 in South 0.9 mph 11 mph 72% 0 in 237 W/m2
11:54 43.3 °F 34.9 °F 30.1 in SE 2 mph 4 mph 72% 0 in 376 W/m2
11:59 43.7 °F 34.9 °F 30.1 in NW 4 mph 8 mph 71% 0 in 359 W/m2
12:04 43.9 °F 34.3 °F 30.1 in North 4.9 mph 5 mph 69% 0.01 in 359 W/m2
12:09 44.1 °F 34.5 °F 30.1 in NW 2.9 mph 9 mph 69% 0.01 in 443 W/m2
12:14 44.1 °F 34.2 °F 30.1 in ESE 6 mph 9 mph 68% 0.01 in 457 W/m2
12:19 44.6 °F 34.3 °F 30.1 in Calm   10 mph 67% 0.01 in 406 W/m2
12:24 44.8 °F 34.2 °F 30.1 in WNW 2.9 mph 7 mph 66% 0.01 in 381 W/m2
12:29 45 °F 34.3 °F 30.1 in NW 6.9 mph 11 mph 66% 0.01 in 450 W/m2
12:34 45.1 °F 34.2 °F 30.1 in NW 0.9 mph 5 mph 65% 0.01 in 494 W/m2
12:39 45.1 °F 34.2 °F 30.1 in North 0.9 mph 8 mph 65% 0.01 in 519 W/m2
12:44 45.3 °F 34.3 °F 30.1 in NW 0.9 mph 5 mph 65% 0.01 in 504 W/m2
12:49 45.7 °F 34.5 °F 30.1 in NW 4.9 mph 5 mph 65% 0.01 in 490 W/m2
12:54 45.9 °F 34 °F 30.1 in West 6 mph 8 mph 63% 0.01 in 483 W/m2
12:59 45.7 °F 33.8 °F 30.1 in WNW 8.9 mph 9 mph 63% 0.01 in 480 W/m2
13:04 45.9 °F 34.3 °F 30.1 in NNW 0.9 mph 3 mph 64% 0 in 478 W/m2
13:09 45.9 °F 34 °F 30.1 in WNW 2.9 mph 4 mph 63% 0 in 454 W/m2
13:15 45.9 °F 33.6 °F 30.1 in NNE 2.9 mph 8 mph 62% 0 in 399 W/m2
13:20 46 °F 33.3 °F 30.1 in Calm   4 mph 61% 0 in 267 W/m2
13:25 46.2 °F 34 °F 30.1 in ENE 2.9 mph 5 mph 62% 0 in 295 W/m2
13:30 46.8 °F 34.9 °F 30 in WNW 6 mph 7 mph 63% 0 in 251 W/m2
13:35 46.8 °F 33.6 °F 30 in West 0.9 mph 11 mph 60% 0 in 304 W/m2
13:40 46.6 °F 34.3 °F 30 in WNW 6.9 mph 11 mph 62% 0 in 292 W/m2
13:45 46.6 °F 35.4 °F 30 in West 4 mph 4 mph 65% 0 in 332 W/m2
13:50 46.8 °F 35.6 °F 30 in West 2.9 mph 11 mph 65% 0 in 343 W/m2
13:55 46.8 °F 35.6 °F 30 in East 8.9 mph 9 mph 65% 0 in 374 W/m2
14:00 46.8 °F 35.2 °F 30 in West 2.9 mph 9 mph 64% 0 in 336 W/m2
14:05 46.9 °F 35.1 °F 30 in WNW 6.9 mph 8 mph 63% 0 in 311 W/m2
14:10 46.9 °F 34.5 °F 30 in NW 2.9 mph 9 mph 62% 0 in 304 W/m2
14:15 47.1 °F 34.3 °F 30 in WNW 4 mph 7 mph 61% 0 in 279 W/m2
14:20 47.1 °F 34.7 °F 30 in Calm   3 mph 62% 0 in 311 W/m2
14:25 47.5 °F 35.1 °F 30 in NW 2 mph 6 mph 62% 0 in 258 W/m2
14:30 47.3 °F 33.6 °F 30 in ESE 4 mph 12 mph 59% 0 in 211 W/m2
14:35 46.9 °F 32.9 °F 30 in NW 2.9 mph 11 mph 58% 0 in 225 W/m2
14:40 46.8 °F 33.6 °F 30 in NNW 2 mph 12 mph 60% 0 in 200 W/m2
14:45 46.9 °F 33.8 °F 30 in WNW 2.9 mph 4 mph 60% 0 in 188 W/m2
14:50 46.8 °F 33.3 °F 30 in ENE 0.9 mph 4 mph 59% 0 in 181 W/m2
14:55 46.8 °F 33.6 °F 30 in SE 0.9 mph 4 mph 60% 0 in 153 W/m2
15:00 46.6 °F 33.4 °F 30 in ESE 4 mph 4 mph 60% 0 in 137 W/m2
15:05 46.6 °F 33.1 °F 30 in SSW 0.9 mph 6 mph 59% 0 in 135 W/m2
15:10 46.6 °F 33.1 °F 30 in NNW 0.9 mph 3 mph 59% 0 in 125 W/m2
15:15 46.4 °F 33.3 °F 30 in North 0.9 mph 3 mph 60% 0 in 130 W/m2
15:20 46.4 °F 32.9 °F 30 in SSE 0.9 mph 4 mph 59% 0 in 156 W/m2
15:25 46.6 °F 33.8 °F 30 in NNE 2 mph 3 mph 61% 0 in 185 W/m2
15:30 46.8 °F 34.5 °F 30 in East 2 mph 4 mph 62% 0 in 246 W/m2
15:35 46.9 °F 33.8 °F 30 in ESE 2.9 mph 3 mph 60% 0 in 227 W/m2
15:40 47.1 °F 34 °F 30 in NE 2 mph 3 mph 60% 0 in 179 W/m2
15:45 47.1 °F 34.3 °F 30 in NW 0.9 mph 3 mph 61% 0 in 197 W/m2
15:51 47.3 °F 34.2 °F 30 in NNE 4 mph 5 mph 60% 0 in 181 W/m2
Juneau County Weather
Compliments of Weather Underground - 4 mb